sensor_id;sensor_type;location;lat;lon;timestamp;temperature;humidity
25582;DHT22;13462;50.764;4.332;2023-07-30T00:02:01;16.10;99.90
25582;DHT22;13462;50.764;4.332;2023-07-30T00:04:27;16.10;99.90
25582;DHT22;13462;50.764;4.332;2023-07-30T00:06:52;16.00;99.90
25582;DHT22;13462;50.764;4.332;2023-07-30T00:09:18;16.00;99.90
25582;DHT22;13462;50.764;4.332;2023-07-30T00:11:43;16.00;99.90
25582;DHT22;13462;50.764;4.332;2023-07-30T00:14:09;16.10;99.90
25582;DHT22;13462;50.764;4.332;2023-07-30T00:16:35;16.10;99.90
25582;DHT22;13462;50.764;4.332;2023-07-30T00:19:00;16.00;99.90
25582;DHT22;13462;50.764;4.332;2023-07-30T00:21:26;16.10;99.90
25582;DHT22;13462;50.764;4.332;2023-07-30T00:23:51;16.20;99.90
25582;DHT22;13462;50.764;4.332;2023-07-30T00:26:17;16.10;99.90
25582;DHT22;13462;50.764;4.332;2023-07-30T00:28:42;16.10;99.90
25582;DHT22;13462;50.764;4.332;2023-07-30T00:31:08;16.20;99.90
25582;DHT22;13462;50.764;4.332;2023-07-30T00:33:33;16.20;99.90
25582;DHT22;13462;50.764;4.332;2023-07-30T00:35:59;16.30;99.90
25582;DHT22;13462;50.764;4.332;2023-07-30T00:38:25;16.40;99.90
25582;DHT22;13462;50.764;4.332;2023-07-30T00:40:50;16.40;99.90
25582;DHT22;13462;50.764;4.332;2023-07-30T00:43:16;16.40;99.90
25582;DHT22;13462;50.764;4.332;2023-07-30T00:45:44;16.40;99.90
25582;DHT22;13462;50.764;4.332;2023-07-30T00:48:11;16.40;99.90
25582;DHT22;13462;50.764;4.332;2023-07-30T00:50:37;16.40;99.90
25582;DHT22;13462;50.764;4.332;2023-07-30T00:53:04;16.50;99.90
25582;DHT22;13462;50.764;4.332;2023-07-30T00:55:30;16.40;99.90
25582;DHT22;13462;50.764;4.332;2023-07-30T00:57:57;16.40;99.90
25582;DHT22;13462;50.764;4.332;2023-07-30T01:00:22;16.40;99.90
25582;DHT22;13462;50.764;4.332;2023-07-30T01:02:51;16.50;99.90
25582;DHT22;13462;50.764;4.332;2023-07-30T01:05:17;16.50;99.90
25582;DHT22;13462;50.764;4.332;2023-07-30T01:07:42;16.40;99.90
25582;DHT22;13462;50.764;4.332;2023-07-30T01:10:08;16.40;99.90
25582;DHT22;13462;50.764;4.332;2023-07-30T01:12:34;16.40;99.90
25582;DHT22;13462;50.764;4.332;2023-07-30T01:15:01;16.40;99.90
25582;DHT22;13462;50.764;4.332;2023-07-30T01:17:28;16.50;99.90
25582;DHT22;13462;50.764;4.332;2023-07-30T01:19:53;16.40;99.90
25582;DHT22;13462;50.764;4.332;2023-07-30T01:22:23;16.40;99.90
25582;DHT22;13462;50.764;4.332;2023-07-30T01:24:49;16.40;99.90
25582;DHT22;13462;50.764;4.332;2023-07-30T01:27:37;16.50;99.90
25582;DHT22;13462;50.764;4.332;2023-07-30T01:30:38;16.50;99.90
25582;DHT22;13462;50.764;4.332;2023-07-30T01:33:06;16.50;99.90
25582;DHT22;13462;50.764;4.332;2023-07-30T01:35:32;16.40;99.90
25582;DHT22;13462;50.764;4.332;2023-07-30T01:37:58;16.40;99.90
25582;DHT22;13462;50.764;4.332;2023-07-30T01:40:24;16.50;99.90
25582;DHT22;13462;50.764;4.332;2023-07-30T01:42:50;16.50;99.90
25582;DHT22;13462;50.764;4.332;2023-07-30T01:45:16;16.50;99.90
25582;DHT22;13462;50.764;4.332;2023-07-30T01:47:41;16.50;99.90
25582;DHT22;13462;50.764;4.332;2023-07-30T01:50:07;16.40;99.90
25582;DHT22;13462;50.764;4.332;2023-07-30T01:52:33;16.40;99.90
25582;DHT22;13462;50.764;4.332;2023-07-30T01:54:58;16.40;99.90
25582;DHT22;13462;50.764;4.332;2023-07-30T01:57:26;16.40;99.90
25582;DHT22;13462;50.764;4.332;2023-07-30T01:59:51;16.40;99.90
25582;DHT22;13462;50.764;4.332;2023-07-30T02:02:17;16.40;99.90
25582;DHT22;13462;50.764;4.332;2023-07-30T02:04:43;16.40;99.90
25582;DHT22;13462;50.764;4.332;2023-07-30T02:07:08;16.50;99.90
25582;DHT22;13462;50.764;4.332;2023-07-30T02:09:34;16.40;99.90
25582;DHT22;13462;50.764;4.332;2023-07-30T02:11:59;16.40;99.90
25582;DHT22;13462;50.764;4.332;2023-07-30T02:14:25;16.40;99.90
25582;DHT22;13462;50.764;4.332;2023-07-30T02:16:51;16.40;99.90
25582;DHT22;13462;50.764;4.332;2023-07-30T02:19:16;16.40;99.90
25582;DHT22;13462;50.764;4.332;2023-07-30T02:21:42;16.40;99.90
25582;DHT22;13462;50.764;4.332;2023-07-30T02:24:09;16.30;99.90
25582;DHT22;13462;50.764;4.332;2023-07-30T02:26:37;16.30;99.90
25582;DHT22;13462;50.764;4.332;2023-07-30T02:29:02;16.30;99.90
25582;DHT22;13462;50.764;4.332;2023-07-30T02:31:28;16.30;99.90
25582;DHT22;13462;50.764;4.332;2023-07-30T02:33:53;16.20;99.90
25582;DHT22;13462;50.764;4.332;2023-07-30T02:36:19;16.20;99.90
25582;DHT22;13462;50.764;4.332;2023-07-30T02:38:44;16.10;99.90
25582;DHT22;13462;50.764;4.332;2023-07-30T02:41:10;16.10;99.90
25582;DHT22;13462;50.764;4.332;2023-07-30T02:43:35;16.20;99.90
25582;DHT22;13462;50.764;4.332;2023-07-30T02:46:01;16.10;99.90
25582;DHT22;13462;50.764;4.332;2023-07-30T02:48:27;16.20;99.90
25582;DHT22;13462;50.764;4.332;2023-07-30T02:50:52;16.20;99.90
25582;DHT22;13462;50.764;4.332;2023-07-30T02:53:18;16.20;99.90
25582;DHT22;13462;50.764;4.332;2023-07-30T02:55:43;16.20;99.90
25582;DHT22;13462;50.764;4.332;2023-07-30T02:58:09;16.10;99.90
25582;DHT22;13462;50.764;4.332;2023-07-30T03:00:34;16.10;99.90
25582;DHT22;13462;50.764;4.332;2023-07-30T03:03:00;16.10;99.90
25582;DHT22;13462;50.764;4.332;2023-07-30T03:05:27;16.00;99.90
25582;DHT22;13462;50.764;4.332;2023-07-30T03:07:52;16.00;99.90
25582;DHT22;13462;50.764;4.332;2023-07-30T03:10:18;16.00;99.90
25582;DHT22;13462;50.764;4.332;2023-07-30T03:12:44;15.90;99.90
25582;DHT22;13462;50.764;4.332;2023-07-30T03:15:09;16.00;99.90
25582;DHT22;13462;50.764;4.332;2023-07-30T03:17:35;16.00;99.90
25582;DHT22;13462;50.764;4.332;2023-07-30T03:20:01;15.90;99.90
25582;DHT22;13462;50.764;4.332;2023-07-30T03:22:27;15.90;99.90
25582;DHT22;13462;50.764;4.332;2023-07-30T03:24:52;15.80;99.90
25582;DHT22;13462;50.764;4.332;2023-07-30T03:27:18;15.80;99.90
25582;DHT22;13462;50.764;4.332;2023-07-30T03:29:43;15.80;99.90
25582;DHT22;13462;50.764;4.332;2023-07-30T03:32:09;15.80;99.90
25582;DHT22;13462;50.764;4.332;2023-07-30T03:34:34;15.90;99.90
25582;DHT22;13462;50.764;4.332;2023-07-30T03:37:00;15.90;99.90
25582;DHT22;13462;50.764;4.332;2023-07-30T03:39:26;15.90;99.90
25582;DHT22;13462;50.764;4.332;2023-07-30T03:41:51;15.80;99.90
25582;DHT22;13462;50.764;4.332;2023-07-30T03:44:17;15.80;99.90
25582;DHT22;13462;50.764;4.332;2023-07-30T03:46:43;15.70;99.90
25582;DHT22;13462;50.764;4.332;2023-07-30T03:49:09;15.60;99.90
25582;DHT22;13462;50.764;4.332;2023-07-30T03:51:34;15.60;99.90
25582;DHT22;13462;50.764;4.332;2023-07-30T03:54:00;15.70;99.90
25582;DHT22;13462;50.764;4.332;2023-07-30T03:56:25;15.70;99.90
25582;DHT22;13462;50.764;4.332;2023-07-30T03:58:51;15.80;99.90
25582;DHT22;13462;50.764;4.332;2023-07-30T04:01:17;15.70;99.90
25582;DHT22;13462;50.764;4.332;2023-07-30T04:03:42;15.70;99.90
25582;DHT22;13462;50.764;4.332;2023-07-30T04:06:08;15.60;99.90
25582;DHT22;13462;50.764;4.332;2023-07-30T04:08:33;15.60;99.90
25582;DHT22;13462;50.764;4.332;2023-07-30T04:10:59;15.60;99.90
25582;DHT22;13462;50.764;4.332;2023-07-30T04:13:24;15.60;99.90
25582;DHT22;13462;50.764;4.332;2023-07-30T04:15:50;15.60;99.90
25582;DHT22;13462;50.764;4.332;2023-07-30T04:18:16;15.50;99.90
25582;DHT22;13462;50.764;4.332;2023-07-30T04:20:41;15.40;99.90
25582;DHT22;13462;50.764;4.332;2023-07-30T04:23:07;15.40;99.90
25582;DHT22;13462;50.764;4.332;2023-07-30T04:25:32;15.40;99.90
25582;DHT22;13462;50.764;4.332;2023-07-30T04:27:58;15.40;99.90
25582;DHT22;13462;50.764;4.332;2023-07-30T04:30:24;15.40;99.90
25582;DHT22;13462;50.764;4.332;2023-07-30T04:32:49;15.40;99.90
25582;DHT22;13462;50.764;4.332;2023-07-30T04:35:15;15.40;99.90
25582;DHT22;13462;50.764;4.332;2023-07-30T04:37:41;15.40;99.90
25582;DHT22;13462;50.764;4.332;2023-07-30T04:40:07;15.40;99.90
25582;DHT22;13462;50.764;4.332;2023-07-30T04:42:33;15.50;99.90
25582;DHT22;13462;50.764;4.332;2023-07-30T04:44:58;15.50;99.90
25582;DHT22;13462;50.764;4.332;2023-07-30T04:47:24;15.40;99.90
25582;DHT22;13462;50.764;4.332;2023-07-30T04:49:49;15.40;99.90
25582;DHT22;13462;50.764;4.332;2023-07-30T04:52:15;15.40;99.90
25582;DHT22;13462;50.764;4.332;2023-07-30T04:54:40;15.40;99.90
25582;DHT22;13462;50.764;4.332;2023-07-30T04:57:06;15.40;99.90
25582;DHT22;13462;50.764;4.332;2023-07-30T04:59:32;15.40;99.90
25582;DHT22;13462;50.764;4.332;2023-07-30T05:01:59;15.30;99.90
25582;DHT22;13462;50.764;4.332;2023-07-30T05:04:25;15.40;99.90
25582;DHT22;13462;50.764;4.332;2023-07-30T05:06:51;15.40;99.90
25582;DHT22;13462;50.764;4.332;2023-07-30T05:09:16;15.40;99.90
25582;DHT22;13462;50.764;4.332;2023-07-30T05:11:42;15.60;99.90
25582;DHT22;13462;50.764;4.332;2023-07-30T05:14:07;15.60;99.90
25582;DHT22;13462;50.764;4.332;2023-07-30T05:16:33;15.60;99.90
25582;DHT22;13462;50.764;4.332;2023-07-30T05:18:58;15.60;99.90
25582;DHT22;13462;50.764;4.332;2023-07-30T05:21:24;15.60;99.90
25582;DHT22;13462;50.764;4.332;2023-07-30T05:23:50;15.70;99.90
25582;DHT22;13462;50.764;4.332;2023-07-30T05:26:15;15.70;99.90
25582;DHT22;13462;50.764;4.332;2023-07-30T05:28:41;15.70;99.90
25582;DHT22;13462;50.764;4.332;2023-07-30T05:31:06;15.70;99.90
25582;DHT22;13462;50.764;4.332;2023-07-30T05:33:32;15.80;99.90
25582;DHT22;13462;50.764;4.332;2023-07-30T05:35:57;15.80;99.90
25582;DHT22;13462;50.764;4.332;2023-07-30T05:38:23;15.90;99.90
25582;DHT22;13462;50.764;4.332;2023-07-30T05:40:49;15.90;99.90
25582;DHT22;13462;50.764;4.332;2023-07-30T05:43:14;15.80;99.90
25582;DHT22;13462;50.764;4.332;2023-07-30T05:45:41;15.80;99.90
25582;DHT22;13462;50.764;4.332;2023-07-30T05:48:06;15.80;99.90
25582;DHT22;13462;50.764;4.332;2023-07-30T05:50:32;15.90;99.90
25582;DHT22;13462;50.764;4.332;2023-07-30T05:52:57;15.90;99.90
25582;DHT22;13462;50.764;4.332;2023-07-30T05:55:23;15.90;99.90
25582;DHT22;13462;50.764;4.332;2023-07-30T05:57:48;15.90;99.90
25582;DHT22;13462;50.764;4.332;2023-07-30T06:00:14;16.00;99.90
25582;DHT22;13462;50.764;4.332;2023-07-30T06:02:40;16.00;99.90
25582;DHT22;13462;50.764;4.332;2023-07-30T06:05:05;16.00;99.90
25582;DHT22;13462;50.764;4.332;2023-07-30T06:07:31;16.00;99.90
25582;DHT22;13462;50.764;4.332;2023-07-30T06:09:57;16.10;99.90
25582;DHT22;13462;50.764;4.332;2023-07-30T06:12:22;16.10;99.90
25582;DHT22;13462;50.764;4.332;2023-07-30T06:14:48;16.00;99.90
25582;DHT22;13462;50.764;4.332;2023-07-30T06:17:13;16.00;99.90
25582;DHT22;13462;50.764;4.332;2023-07-30T06:19:39;16.10;99.90
25582;DHT22;13462;50.764;4.332;2023-07-30T06:22:05;16.20;99.90
25582;DHT22;13462;50.764;4.332;2023-07-30T06:24:30;16.10;99.90
25582;DHT22;13462;50.764;4.332;2023-07-30T06:26:56;16.10;99.90
25582;DHT22;13462;50.764;4.332;2023-07-30T06:29:22;16.30;99.90
25582;DHT22;13462;50.764;4.332;2023-07-30T06:31:47;16.30;99.90
25582;DHT22;13462;50.764;4.332;2023-07-30T06:34:13;16.40;99.90
25582;DHT22;13462;50.764;4.332;2023-07-30T06:36:38;16.50;99.90
25582;DHT22;13462;50.764;4.332;2023-07-30T06:39:04;16.60;99.90
25582;DHT22;13462;50.764;4.332;2023-07-30T06:41:30;16.70;99.90
25582;DHT22;13462;50.764;4.332;2023-07-30T06:43:55;16.70;99.90
25582;DHT22;13462;50.764;4.332;2023-07-30T06:46:21;16.70;99.90
25582;DHT22;13462;50.764;4.332;2023-07-30T06:48:46;16.70;99.90
25582;DHT22;13462;50.764;4.332;2023-07-30T06:51:12;16.70;99.90
25582;DHT22;13462;50.764;4.332;2023-07-30T06:53:39;16.70;99.90
25582;DHT22;13462;50.764;4.332;2023-07-30T06:56:04;16.70;99.90
25582;DHT22;13462;50.764;4.332;2023-07-30T06:58:30;16.90;99.90
25582;DHT22;13462;50.764;4.332;2023-07-30T07:00:56;17.10;99.90
25582;DHT22;13462;50.764;4.332;2023-07-30T07:03:21;17.20;99.90
25582;DHT22;13462;50.764;4.332;2023-07-30T07:05:56;17.20;99.90
25582;DHT22;13462;50.764;4.332;2023-07-30T07:08:22;17.20;99.90
25582;DHT22;13462;50.764;4.332;2023-07-30T07:10:48;17.40;99.90
25582;DHT22;13462;50.764;4.332;2023-07-30T07:13:14;17.50;99.90
25582;DHT22;13462;50.764;4.332;2023-07-30T07:15:43;17.60;99.90
25582;DHT22;13462;50.764;4.332;2023-07-30T07:18:09;17.70;99.90
25582;DHT22;13462;50.764;4.332;2023-07-30T07:20:35;17.70;99.90
25582;DHT22;13462;50.764;4.332;2023-07-30T07:23:01;17.90;99.90
25582;DHT22;13462;50.764;4.332;2023-07-30T07:25:26;18.20;99.90
25582;DHT22;13462;50.764;4.332;2023-07-30T07:27:52;18.60;99.90
25582;DHT22;13462;50.764;4.332;2023-07-30T07:30:18;18.80;99.90
25582;DHT22;13462;50.764;4.332;2023-07-30T07:32:43;19.10;99.90
25582;DHT22;13462;50.764;4.332;2023-07-30T07:35:09;19.30;99.90
25582;DHT22;13462;50.764;4.332;2023-07-30T07:37:34;19.20;99.90
25582;DHT22;13462;50.764;4.332;2023-07-30T07:40:00;18.90;99.90
25582;DHT22;13462;50.764;4.332;2023-07-30T07:42:26;18.70;99.90
25582;DHT22;13462;50.764;4.332;2023-07-30T07:44:52;18.70;99.90
25582;DHT22;13462;50.764;4.332;2023-07-30T07:47:17;18.60;99.90
25582;DHT22;13462;50.764;4.332;2023-07-30T07:49:43;18.80;99.90
25582;DHT22;13462;50.764;4.332;2023-07-30T07:52:08;18.90;99.90
25582;DHT22;13462;50.764;4.332;2023-07-30T07:54:34;19.00;99.90
25582;DHT22;13462;50.764;4.332;2023-07-30T07:57:00;19.20;99.90
25582;DHT22;13462;50.764;4.332;2023-07-30T07:59:25;19.40;99.90
25582;DHT22;13462;50.764;4.332;2023-07-30T08:01:53;19.40;99.90
25582;DHT22;13462;50.764;4.332;2023-07-30T08:04:18;19.50;99.90
25582;DHT22;13462;50.764;4.332;2023-07-30T08:06:46;19.80;99.90
25582;DHT22;13462;50.764;4.332;2023-07-30T08:09:12;19.90;99.90
25582;DHT22;13462;50.764;4.332;2023-07-30T08:11:38;20.10;99.90
25582;DHT22;13462;50.764;4.332;2023-07-30T08:14:04;19.90;99.90
25582;DHT22;13462;50.764;4.332;2023-07-30T08:16:29;19.60;99.90
25582;DHT22;13462;50.764;4.332;2023-07-30T08:18:55;19.50;99.90
25582;DHT22;13462;50.764;4.332;2023-07-30T08:21:21;19.80;99.90
25582;DHT22;13462;50.764;4.332;2023-07-30T08:23:46;19.70;99.90
25582;DHT22;13462;50.764;4.332;2023-07-30T08:26:12;19.60;99.90
25582;DHT22;13462;50.764;4.332;2023-07-30T08:28:38;19.50;99.90
25582;DHT22;13462;50.764;4.332;2023-07-30T08:31:04;19.70;99.90
25582;DHT22;13462;50.764;4.332;2023-07-30T08:33:30;19.90;99.90
25582;DHT22;13462;50.764;4.332;2023-07-30T08:35:56;19.90;99.90
25582;DHT22;13462;50.764;4.332;2023-07-30T08:38:22;20.10;99.90
25582;DHT22;13462;50.764;4.332;2023-07-30T08:40:48;20.00;99.90
25582;DHT22;13462;50.764;4.332;2023-07-30T08:43:15;20.00;99.90
25582;DHT22;13462;50.764;4.332;2023-07-30T08:45:41;19.90;99.90
25582;DHT22;13462;50.764;4.332;2023-07-30T08:48:07;19.80;99.90
25582;DHT22;13462;50.764;4.332;2023-07-30T08:50:33;19.90;99.90
25582;DHT22;13462;50.764;4.332;2023-07-30T08:53:01;20.20;99.90
25582;DHT22;13462;50.764;4.332;2023-07-30T08:55:28;20.50;99.90
25582;DHT22;13462;50.764;4.332;2023-07-30T08:57:56;20.80;99.90
25582;DHT22;13462;50.764;4.332;2023-07-30T09:00:25;20.80;99.90
25582;DHT22;13462;50.764;4.332;2023-07-30T09:02:53;20.20;99.90
25582;DHT22;13462;50.764;4.332;2023-07-30T09:05:20;20.00;99.90
25582;DHT22;13462;50.764;4.332;2023-07-30T09:07:46;19.80;99.90
25582;DHT22;13462;50.764;4.332;2023-07-30T09:10:12;19.50;99.90
25582;DHT22;13462;50.764;4.332;2023-07-30T09:12:38;19.20;99.90
25582;DHT22;13462;50.764;4.332;2023-07-30T09:15:05;19.00;99.90
25582;DHT22;13462;50.764;4.332;2023-07-30T09:17:31;19.10;99.90
25582;DHT22;13462;50.764;4.332;2023-07-30T09:19:59;19.00;99.90
25582;DHT22;13462;50.764;4.332;2023-07-30T09:22:28;18.90;99.90
25582;DHT22;13462;50.764;4.332;2023-07-30T09:24:57;19.00;99.90
25582;DHT22;13462;50.764;4.332;2023-07-30T09:27:25;19.30;99.90
25582;DHT22;13462;50.764;4.332;2023-07-30T09:29:56;19.30;99.90
25582;DHT22;13462;50.764;4.332;2023-07-30T09:32:30;19.50;99.90
25582;DHT22;13462;50.764;4.332;2023-07-30T09:35:10;19.60;99.90
25582;DHT22;13462;50.764;4.332;2023-07-30T09:37:38;20.20;99.90
25582;DHT22;13462;50.764;4.332;2023-07-30T09:40:06;20.80;99.90
25582;DHT22;13462;50.764;4.332;2023-07-30T09:42:32;21.00;99.90
25582;DHT22;13462;50.764;4.332;2023-07-30T09:45:08;20.90;99.90
25582;DHT22;13462;50.764;4.332;2023-07-30T09:47:37;20.80;99.90
25582;DHT22;13462;50.764;4.332;2023-07-30T09:50:02;20.70;99.90
25582;DHT22;13462;50.764;4.332;2023-07-30T09:52:29;20.80;99.90
25582;DHT22;13462;50.764;4.332;2023-07-30T09:54:58;20.40;99.90
25582;DHT22;13462;50.764;4.332;2023-07-30T09:57:24;20.50;99.90
25582;DHT22;13462;50.764;4.332;2023-07-30T09:59:50;20.70;99.90
25582;DHT22;13462;50.764;4.332;2023-07-30T10:02:16;20.80;99.90
25582;DHT22;13462;50.764;4.332;2023-07-30T10:04:43;20.60;99.90
25582;DHT22;13462;50.764;4.332;2023-07-30T10:07:14;20.50;99.90
25582;DHT22;13462;50.764;4.332;2023-07-30T10:09:42;20.70;99.90
25582;DHT22;13462;50.764;4.332;2023-07-30T10:12:12;21.10;99.90
25582;DHT22;13462;50.764;4.332;2023-07-30T10:14:38;21.70;99.90
25582;DHT22;13462;50.764;4.332;2023-07-30T10:17:04;22.20;99.90
25582;DHT22;13462;50.764;4.332;2023-07-30T10:19:30;22.10;99.90
25582;DHT22;13462;50.764;4.332;2023-07-30T10:22:20;22.00;99.90
25582;DHT22;13462;50.764;4.332;2023-07-30T10:24:58;22.80;99.90
25582;DHT22;13462;50.764;4.332;2023-07-30T10:27:27;24.00;99.90
25582;DHT22;13462;50.764;4.332;2023-07-30T10:30:13;25.00;99.90
25582;DHT22;13462;50.764;4.332;2023-07-30T10:35:05;26.90;97.80
25582;DHT22;13462;50.764;4.332;2023-07-30T10:37:31;26.40;97.80
25582;DHT22;13462;50.764;4.332;2023-07-30T10:39:56;24.90;98.80
25582;DHT22;13462;50.764;4.332;2023-07-30T10:42:22;23.50;99.90
25582;DHT22;13462;50.764;4.332;2023-07-30T10:44:49;22.80;99.90
25582;DHT22;13462;50.764;4.332;2023-07-30T10:47:14;21.70;99.90
25582;DHT22;13462;50.764;4.332;2023-07-30T10:49:41;21.30;99.90
25582;DHT22;13462;50.764;4.332;2023-07-30T10:52:09;21.30;99.90
25582;DHT22;13462;50.764;4.332;2023-07-30T10:54:35;21.40;99.90
25582;DHT22;13462;50.764;4.332;2023-07-30T10:57:00;21.70;99.90
25582;DHT22;13462;50.764;4.332;2023-07-30T10:59:26;21.90;99.90
25582;DHT22;13462;50.764;4.332;2023-07-30T11:01:58;21.80;99.90
25582;DHT22;13462;50.764;4.332;2023-07-30T11:04:23;21.80;99.90
25582;DHT22;13462;50.764;4.332;2023-07-30T11:06:50;22.60;99.90
25582;DHT22;13462;50.764;4.332;2023-07-30T11:09:23;24.50;99.90
25582;DHT22;13462;50.764;4.332;2023-07-30T11:11:49;25.70;99.90
25582;DHT22;13462;50.764;4.332;2023-07-30T11:14:20;25.20;99.40
25582;DHT22;13462;50.764;4.332;2023-07-30T11:16:53;25.50;99.90
25582;DHT22;13462;50.764;4.332;2023-07-30T11:19:19;25.70;99.10
25582;DHT22;13462;50.764;4.332;2023-07-30T11:21:48;26.40;97.00
25582;DHT22;13462;50.764;4.332;2023-07-30T11:24:15;26.60;95.40
25582;DHT22;13462;50.764;4.332;2023-07-30T11:26:41;26.60;95.10
25582;DHT22;13462;50.764;4.332;2023-07-30T11:29:27;26.20;93.30
25582;DHT22;13462;50.764;4.332;2023-07-30T11:31:56;25.70;94.30
25582;DHT22;13462;50.764;4.332;2023-07-30T11:34:23;25.70;94.60
25582;DHT22;13462;50.764;4.332;2023-07-30T11:36:49;26.40;95.10
25582;DHT22;13462;50.764;4.332;2023-07-30T11:39:15;27.50;91.30
25582;DHT22;13462;50.764;4.332;2023-07-30T11:41:41;27.50;92.20
25582;DHT22;13462;50.764;4.332;2023-07-30T11:44:07;28.10;92.90
25582;DHT22;13462;50.764;4.332;2023-07-30T11:46:32;28.10;90.70
25582;DHT22;13462;50.764;4.332;2023-07-30T11:49:15;27.40;89.60
25582;DHT22;13462;50.764;4.332;2023-07-30T11:51:42;26.40;91.00
25582;DHT22;13462;50.764;4.332;2023-07-30T11:54:19;25.70;92.20
25582;DHT22;13462;50.764;4.332;2023-07-30T11:56:44;25.40;92.90
25582;DHT22;13462;50.764;4.332;2023-07-30T11:59:10;24.90;93.80
25582;DHT22;13462;50.764;4.332;2023-07-30T12:01:36;25.40;95.50
25582;DHT22;13462;50.764;4.332;2023-07-30T12:04:04;26.60;93.30
25582;DHT22;13462;50.764;4.332;2023-07-30T12:06:42;27.30;91.60
25582;DHT22;13462;50.764;4.332;2023-07-30T12:11:45;26.30;92.70
25582;DHT22;13462;50.764;4.332;2023-07-30T12:14:11;25.30;93.80
25582;DHT22;13462;50.764;4.332;2023-07-30T12:16:36;24.10;95.90
25582;DHT22;13462;50.764;4.332;2023-07-30T12:19:02;23.40;98.90
25582;DHT22;13462;50.764;4.332;2023-07-30T12:21:28;24.10;99.30
25582;DHT22;13462;50.764;4.332;2023-07-30T12:23:54;25.00;99.20
25582;DHT22;13462;50.764;4.332;2023-07-30T12:26:19;25.60;98.30
25582;DHT22;13462;50.764;4.332;2023-07-30T12:28:45;26.50;97.70
25582;DHT22;13462;50.764;4.332;2023-07-30T12:31:11;27.80;94.20
25582;DHT22;13462;50.764;4.332;2023-07-30T12:33:36;28.50;90.80
25582;DHT22;13462;50.764;4.332;2023-07-30T12:36:02;27.50;89.70
25582;DHT22;13462;50.764;4.332;2023-07-30T12:38:28;26.60;91.60
25582;DHT22;13462;50.764;4.332;2023-07-30T12:40:53;26.30;93.50
25582;DHT22;13462;50.764;4.332;2023-07-30T12:43:19;26.00;93.30
25582;DHT22;13462;50.764;4.332;2023-07-30T12:45:45;25.40;93.30
25582;DHT22;13462;50.764;4.332;2023-07-30T12:48:11;24.90;93.80
25582;DHT22;13462;50.764;4.332;2023-07-30T12:50:37;25.00;93.70
25582;DHT22;13462;50.764;4.332;2023-07-30T12:53:04;24.50;92.50
25582;DHT22;13462;50.764;4.332;2023-07-30T12:55:29;24.40;93.30
25582;DHT22;13462;50.764;4.332;2023-07-30T12:57:55;25.10;94.40
25582;DHT22;13462;50.764;4.332;2023-07-30T13:00:21;26.20;91.30
25582;DHT22;13462;50.764;4.332;2023-07-30T13:02:46;26.40;90.50
25582;DHT22;13462;50.764;4.332;2023-07-30T13:05:12;26.20;87.70
25582;DHT22;13462;50.764;4.332;2023-07-30T13:07:39;25.70;90.30
25582;DHT22;13462;50.764;4.332;2023-07-30T13:10:08;25.90;90.00
25582;DHT22;13462;50.764;4.332;2023-07-30T13:12:34;26.30;89.80
25582;DHT22;13462;50.764;4.332;2023-07-30T13:15:01;26.40;88.40
25582;DHT22;13462;50.764;4.332;2023-07-30T13:17:27;26.10;89.00
25582;DHT22;13462;50.764;4.332;2023-07-30T13:19:52;26.40;90.20
25582;DHT22;13462;50.764;4.332;2023-07-30T13:22:18;26.60;90.10
25582;DHT22;13462;50.764;4.332;2023-07-30T13:24:44;27.10;89.90
25582;DHT22;13462;50.764;4.332;2023-07-30T13:27:09;27.00;90.40
25582;DHT22;13462;50.764;4.332;2023-07-30T13:29:36;26.70;87.30
25582;DHT22;13462;50.764;4.332;2023-07-30T13:32:01;26.50;90.10
25582;DHT22;13462;50.764;4.332;2023-07-30T13:34:27;26.60;87.80
25582;DHT22;13462;50.764;4.332;2023-07-30T13:36:52;26.60;88.40
25582;DHT22;13462;50.764;4.332;2023-07-30T13:39:18;26.40;83.90
25582;DHT22;13462;50.764;4.332;2023-07-30T13:41:44;26.60;83.90
25582;DHT22;13462;50.764;4.332;2023-07-30T13:44:10;26.70;86.30
25582;DHT22;13462;50.764;4.332;2023-07-30T13:46:37;26.80;88.20
25582;DHT22;13462;50.764;4.332;2023-07-30T13:49:02;27.20;90.10
25582;DHT22;13462;50.764;4.332;2023-07-30T13:51:28;26.80;85.60
25582;DHT22;13462;50.764;4.332;2023-07-30T13:53:58;26.00;90.40
25582;DHT22;13462;50.764;4.332;2023-07-30T13:56:25;25.20;90.40
25582;DHT22;13462;50.764;4.332;2023-07-30T13:58:50;24.70;91.80
25582;DHT22;13462;50.764;4.332;2023-07-30T14:01:16;24.40;92.70
25582;DHT22;13462;50.764;4.332;2023-07-30T14:03:43;24.50;92.60
25582;DHT22;13462;50.764;4.332;2023-07-30T14:06:09;24.60;93.30
25582;DHT22;13462;50.764;4.332;2023-07-30T14:08:34;24.40;93.40
25582;DHT22;13462;50.764;4.332;2023-07-30T14:11:00;24.00;94.30
25582;DHT22;13462;50.764;4.332;2023-07-30T14:13:26;24.20;95.20
25582;DHT22;13462;50.764;4.332;2023-07-30T14:15:51;24.40;96.90
25582;DHT22;13462;50.764;4.332;2023-07-30T14:18:17;24.50;93.20
25582;DHT22;13462;50.764;4.332;2023-07-30T14:20:43;24.60;93.80
25582;DHT22;13462;50.764;4.332;2023-07-30T14:23:08;24.20;94.20
25582;DHT22;13462;50.764;4.332;2023-07-30T14:25:35;23.80;95.30
25582;DHT22;13462;50.764;4.332;2023-07-30T14:28:00;23.80;97.30
25582;DHT22;13462;50.764;4.332;2023-07-30T14:30:26;24.20;96.50
25582;DHT22;13462;50.764;4.332;2023-07-30T14:32:52;24.40;95.40
25582;DHT22;13462;50.764;4.332;2023-07-30T14:35:17;24.10;96.50
25582;DHT22;13462;50.764;4.332;2023-07-30T14:37:43;23.50;97.10
25582;DHT22;13462;50.764;4.332;2023-07-30T14:40:09;23.40;98.10
25582;DHT22;13462;50.764;4.332;2023-07-30T14:42:34;23.30;98.30
25582;DHT22;13462;50.764;4.332;2023-07-30T14:45:00;23.10;98.80
25582;DHT22;13462;50.764;4.332;2023-07-30T14:47:25;22.80;99.90
25582;DHT22;13462;50.764;4.332;2023-07-30T14:49:52;22.60;99.90
25582;DHT22;13462;50.764;4.332;2023-07-30T14:52:18;22.30;99.90
25582;DHT22;13462;50.764;4.332;2023-07-30T14:54:46;22.20;99.90
25582;DHT22;13462;50.764;4.332;2023-07-30T14:57:12;21.90;99.90
25582;DHT22;13462;50.764;4.332;2023-07-30T14:59:37;21.60;99.90
25582;DHT22;13462;50.764;4.332;2023-07-30T15:02:03;21.20;99.90
25582;DHT22;13462;50.764;4.332;2023-07-30T15:04:28;21.10;99.90
25582;DHT22;13462;50.764;4.332;2023-07-30T15:06:56;21.10;99.90
25582;DHT22;13462;50.764;4.332;2023-07-30T15:09:21;21.30;99.90
25582;DHT22;13462;50.764;4.332;2023-07-30T15:11:47;21.20;99.90
25582;DHT22;13462;50.764;4.332;2023-07-30T15:14:12;21.30;99.90
25582;DHT22;13462;50.764;4.332;2023-07-30T15:16:38;21.20;99.90
25582;DHT22;13462;50.764;4.332;2023-07-30T15:19:04;21.20;99.90
25582;DHT22;13462;50.764;4.332;2023-07-30T15:21:30;20.90;99.90
25582;DHT22;13462;50.764;4.332;2023-07-30T15:23:56;20.60;99.90
25582;DHT22;13462;50.764;4.332;2023-07-30T15:26:23;20.50;99.90
25582;DHT22;13462;50.764;4.332;2023-07-30T15:28:49;20.40;99.90
25582;DHT22;13462;50.764;4.332;2023-07-30T15:31:15;20.50;99.90